Terminal Aerodrome Forecast
Issued by NWS

Home | Current Version | Previous Version | Graphics & Text | Print | Product List | Glossary Off
Versions: 1 2 3 4 5 6 7 8 9 10 11 12 13 14 15

000
FTUS43 KTOP 261700
TAFFOE
TAF
KFOE 261725Z 2618/2718 31020G30KT P6SM BKN035
     FM261900 33020G30KT P6SM BKN030
     FM270300 35005KT P6SM SCT120=

USA.gov is the U.S. government's official web portal to all federal, state and local government web resources and services.